Vega Emtoli — LAQY7 — position and weather

sailwx.info

Track history (hours):
 
Tides and Currents Weather Stations Pressure Air Temp Water Temp Dewpoint Dewpoint Depression Visibility Wind Speed Wind Dir Waves Ship Positions

Vega Emtoli

Last reported at 2016-Jun-01 13:22 UTC. Time now 2016-Jun-27 20:16 UTC.
Position S 22°24' W 040°17'.
Warning: this ship's position is 26 days out of date.

Length 59 m; draft 4.5 m.

Type: Pollution control. MMSI: 258026000.

Date/timePositionNaut miles runAvg speedWind from/ knotsBaromVisibWave heightAir tempDewpointWater temp
2016-Jun-01 13:22S 22°24' W 040°17'2 2.0
2016-Jun-01 12:33S 22°23' W 040°16'  
2016-May-25 02:10S 23°00' W 040°47'2 2.5
2016-May-25 01:28S 23°01' W 040°45'2 1.8
2016-May-25 00:33S 23°00' W 040°44'1 0.2
2016-May-24 18:33S 22°60' W 040°43'4 0.6
2016-May-24 11:04S 23°03' W 040°46'1 2.4
2016-May-24 10:33S 23°02' W 040°45'2 0.7
2016-May-24 08:20S 23°03' W 040°46'2 3.2
2016-May-24 07:33S 23°05' W 040°47'1 1.3
2016-May-24 06:33S 23°05' W 040°46'1 1.3
2016-May-24 05:27S 23°03' W 040°45'1 1.4
2016-May-24 04:33S 23°02' W 040°44'2 1.5
2016-May-24 03:23S 23°01' W 040°43'2 1.4
2016-May-24 02:17S 22°60' W 040°42'3 1.0
2016-May-23 23:06S 23°02' W 040°44'1 1.8
2016-May-23 22:28S 23°01' W 040°44'4 0.3
2016-May-23 09:24S 22°58' W 040°41'2 0.2
2016-May-22 22:13S 23°00' W 040°42'2 3.1
2016-May-22 21:33S 22°58' W 040°42'8 8.1
2016-May-22 20:33S 22°50' W 040°42'  
Track history (hours):
 
Tides and Currents Weather Stations Pressure Air Temp Water Temp Dewpoint Dewpoint Depression Visibility Wind Speed Wind Dir Waves Ship Positions

Vega Emtoli

Last reported at 2016-Jun-01 13:22 UTC. Time now 2016-Jun-27 20:16 UTC.
Position S 22°24' W 040°17'.
Warning: this ship's position is 26 days out of date.

Length 59 m; draft 4.5 m.

Type: Pollution control. MMSI: 258026000.

Date/timePositionNaut miles runAvg speedWind from/ knotsBaromVisibWave heightAir tempDewpointWater temp
2016-Jun-01 13:22S 22°24' W 040°17'2 2.0
2016-Jun-01 12:33S 22°23' W 040°16'  
2016-May-25 02:10S 23°00' W 040°47'2 2.5
2016-May-25 01:28S 23°01' W 040°45'2 1.8
2016-May-25 00:33S 23°00' W 040°44'1 0.2
2016-May-24 18:33S 22°60' W 040°43'4 0.6
2016-May-24 11:04S 23°03' W 040°46'1 2.4
2016-May-24 10:33S 23°02' W 040°45'2 0.7
2016-May-24 08:20S 23°03' W 040°46'2 3.2
2016-May-24 07:33S 23°05' W 040°47'1 1.3
2016-May-24 06:33S 23°05' W 040°46'1 1.3
2016-May-24 05:27S 23°03' W 040°45'1 1.4
2016-May-24 04:33S 23°02' W 040°44'2 1.5
2016-May-24 03:23S 23°01' W 040°43'2 1.4
2016-May-24 02:17S 22°60' W 040°42'3 1.0
2016-May-23 23:06S 23°02' W 040°44'1 1.8
2016-May-23 22:28S 23°01' W 040°44'4 0.3
2016-May-23 09:24S 22°58' W 040°41'2 0.2
2016-May-22 22:13S 23°00' W 040°42'2 3.1
2016-May-22 21:33S 22°58' W 040°42'8 8.1
2016-May-22 20:33S 22°50' W 040°42'  

Dump ship's entire track history